Time;durP1;ratioP1;P1;durP2;ratioP2;P2;SDS_P1;SDS_P2;PMS_P1;PMS_P2;Temp;Humidity;BMP_temperature;BMP_pressure;BME280_temperature;BME280_humidity;BME280_pressure;Samples;Min_cycle;Max_cycle;Signal;HPM_P1;HPM_P2
2022/06/24 00:02:25;;;;;;;9.70;6.10;;;;;;;;;;8268407;28;20059;-88
2022/06/24 00:06:41;;;;;;;10.95;6.20;;;;;;;;;;8267470;28;20054;-89
2022/06/24 00:10:44;;;;;;;11.52;6.38;;;;;;;;;;8269435;28;20054;-86
2022/06/24 00:15:00;;;;;;;7.72;4.72;;;;;;;;;;8268731;28;20482;-89
2022/06/24 00:19:12;;;;;;;8.75;5.88;;;;;;;;;;8267757;28;20042;-87
2022/06/24 00:23:17;;;;;;;7.65;5.85;;;;;;;;;;8268239;28;20407;-88
2022/06/24 00:27:22;;;;;;;10.05;6.38;;;;;;;;;;8268200;28;20046;-88
2022/06/24 00:31:26;;;;;;;8.65;5.82;;;;;;;;;;8267565;28;20042;-88
2022/06/24 00:35:37;;;;;;;8.48;5.95;;;;;;;;;;8280390;28;20038;-88
2022/06/24 00:39:40;;;;;;;9.60;6.90;;;;;;;;;;8203801;28;20046;-88
2022/06/24 00:43:45;;;;;;;9.70;6.88;;;;;;;;;;8201106;28;20087;-89
2022/06/24 00:47:50;;;;;;;10.77;6.50;;;;;;;;;;8201206;28;20066;-89
2022/06/24 00:51:53;;;;;;;9.27;6.57;;;;;;;;;;8408667;23;20063;-91
2022/06/24 01:00:08;;;;;;;8.75;6.07;;;;;;;;;;8310946;23;20049;-88
2022/06/24 01:04:13;;;;;;;10.80;6.72;;;;;;;;;;8295848;28;20527;-88
2022/06/24 01:08:16;;;;;;;9.52;6.22;;;;;;;;;;8295070;28;20046;-87
2022/06/24 01:12:19;;;;;;;7.53;6.15;;;;;;;;;;8297085;28;20071;-87
2022/06/24 01:16:25;;;;;;;7.40;5.70;;;;;;;;;;8294169;28;20049;-85
2022/06/24 01:20:34;;;;;;;8.77;6.30;;;;;;;;;;8291291;28;20041;-86
2022/06/24 01:24:40;;;;;;;9.80;6.78;;;;;;;;;;8288015;28;20057;-89
2022/06/24 01:28:48;;;;;;;9.10;6.38;;;;;;;;;;8291098;28;20136;-88
2022/06/24 01:32:53;;;;;;;9.52;6.07;;;;;;;;;;8286596;28;20140;-90
2022/06/24 01:36:59;;;;;;;10.55;6.50;;;;;;;;;;8295889;28;20406;-89
2022/06/24 01:41:03;;;;;;;8.70;6.15;;;;;;;;;;8294303;28;20052;-86
2022/06/24 01:45:07;;;;;;;8.00;6.32;;;;;;;;;;8274225;28;20049;-86
2022/06/24 01:49:10;;;;;;;9.60;6.38;;;;;;;;;;8288994;28;20097;-89
2022/06/24 01:53:13;;;;;;;9.20;6.75;;;;;;;;;;8277148;28;20089;-89
2022/06/24 01:57:19;;;;;;;9.32;6.63;;;;;;;;;;8282218;28;20119;-86
2022/06/24 02:01:22;;;;;;;13.70;6.78;;;;;;;;;;8292007;28;20042;-89
2022/06/24 02:05:27;;;;;;;10.93;6.30;;;;;;;;;;8295040;28;20052;-90
2022/06/24 02:13:26;;;;;;;10.05;5.88;;;;;;;;;;8283998;28;20084;-90
2022/06/24 02:13:58;;;;;;;8.18;6.32;;;;;;;;;;8294987;28;20050;-91
2022/06/24 02:18:05;;;;;;;8.93;6.47;;;;;;;;;;8277205;28;20054;-90
2022/06/24 02:22:10;;;;;;;9.43;6.15;;;;;;;;;;8269880;28;20164;-90
2022/06/24 02:26:14;;;;;;;9.50;6.13;;;;;;;;;;8293736;28;20050;-91
2022/06/24 02:30:18;;;;;;;12.05;6.38;;;;;;;;;;8287747;28;20061;-89
2022/06/24 02:34:21;;;;;;;29.17;13.77;;;;;;;;;;8267847;28;20112;-89
2022/06/24 02:38:25;;;;;;;38.10;18.20;;;;;;;;;;8287024;28;20049;-89
2022/06/24 02:42:31;;;;;;;61.47;29.00;;;;;;;;;;8268904;28;20525;-91
2022/06/24 02:46:39;;;;;;;39.97;19.90;;;;;;;;;;8268348;28;20058;-89
2022/06/24 02:50:50;;;;;;;26.13;15.02;;;;;;;;;;8279765;28;20137;-90
2022/06/24 02:54:54;;;;;;;15.98;8.07;;;;;;;;;;8277846;28;20054;-89
2022/06/24 02:59:00;;;;;;;8.75;6.63;;;;;;;;;;8258636;28;20077;-90
2022/06/24 03:03:10;;;;;;;11.88;7.13;;;;;;;;;;8275485;28;20075;-89
2022/06/24 03:07:14;;;;;;;12.90;7.13;;;;;;;;;;8262938;28;20166;-86
2022/06/24 03:11:19;;;;;;;21.02;7.97;;;;;;;;;;8261695;28;20050;-90
2022/06/24 03:53:16;;;;;;;10.10;6.77;;;;;;;;;;8237248;28;20100;-90
2022/06/24 03:57:21;;;;;;;9.95;6.65;;;;;;;;;;8311377;28;20045;-87
2022/06/24 04:01:24;;;;;;;14.00;6.80;;;;;;;;;;8329823;28;20132;-87
2022/06/24 04:05:27;;;;;;;9.05;6.40;;;;;;;;;;8320086;28;20042;-88
2022/06/24 04:09:36;;;;;;;9.63;6.68;;;;;;;;;;8332300;28;20091;-87
2022/06/24 04:13:42;;;;;;;10.73;6.25;;;;;;;;;;8330088;28;20045;-88
2022/06/24 04:17:49;;;;;;;26.65;13.02;;;;;;;;;;8331595;28;20053;-86
2022/06/24 04:21:54;;;;;;;14.55;8.95;;;;;;;;;;8330957;28;20057;-88
2022/06/24 04:25:58;;;;;;;16.10;8.38;;;;;;;;;;8331733;28;20056;-89
2022/06/24 04:30:06;;;;;;;13.90;8.00;;;;;;;;;;8331386;28;20165;-87
2022/06/24 04:34:12;;;;;;;29.45;7.32;;;;;;;;;;8335901;28;20068;-88
2022/06/24 04:38:18;;;;;;;14.75;6.18;;;;;;;;;;8330941;28;20106;-88
2022/06/24 04:42:24;;;;;;;11.23;5.90;;;;;;;;;;8318592;28;20053;-88
2022/06/24 04:46:27;;;;;;;10.23;5.03;;;;;;;;;;8363407;28;20040;-88
2022/06/24 04:50:31;;;;;;;11.82;6.00;;;;;;;;;;8346357;28;20060;-87
2022/06/24 04:54:37;;;;;;;14.77;7.18;;;;;;;;;;8346003;28;20135;-87
2022/06/24 04:58:44;;;;;;;25.08;6.70;;;;;;;;;;8346506;28;20045;-88
2022/06/24 05:02:50;;;;;;;22.23;5.93;;;;;;;;;;8344042;28;20060;-83
2022/06/24 05:06:55;;;;;;;24.30;5.15;;;;;;;;;;8345347;28;20056;-87
2022/06/24 05:10:59;;;;;;;13.73;4.43;;;;;;;;;;8362704;28;20053;-85
2022/06/24 05:15:03;;;;;;;12.95;3.80;;;;;;;;;;8361217;28;20045;-86
2022/06/24 05:19:12;;;;;;;17.08;3.45;;;;;;;;;;8354634;28;20045;-85
2022/06/24 05:23:20;;;;;;;11.63;3.47;;;;;;;;;;8354670;28;20386;-88
2022/06/24 05:27:32;;;;;;;10.27;3.65;;;;;;;;;;8361904;28;20051;-89
2022/06/24 05:31:41;;;;;;;11.90;3.47;;;;;;;;;;8342890;28;20045;-84
2022/06/24 05:35:59;;;;;;;18.80;4.57;;;;;;;;;;8354279;28;20048;-88
2022/06/24 05:40:10;;;;;;;12.55;3.70;;;;;;;;;;8355705;28;20049;-88
2022/06/24 05:44:19;;;;;;;7.03;3.40;;;;;;;;;;8363519;28;20056;-85
2022/06/24 05:48:45;;;;;;;7.50;2.97;;;;;;;;;;8362203;28;20516;-86
2022/06/24 05:57:17;;;;;;;13.35;4.22;;;;;;;;;;8363360;28;20037;-86
2022/06/24 06:01:20;;;;;;;11.63;2.90;;;;;;;;;;8359544;28;20041;-87
2022/06/24 06:05:24;;;;;;;7.43;3.15;;;;;;;;;;8362709;28;20044;-88
2022/06/24 06:09:29;;;;;;;16.38;9.52;;;;;;;;;;8356408;28;20040;-87
2022/06/24 06:13:32;;;;;;;16.50;4.95;;;;;;;;;;8357889;28;20123;-88
2022/06/24 06:17:37;;;;;;;7.72;3.38;;;;;;;;;;8357416;28;20048;-87
2022/06/24 06:21:41;;;;;;;7.97;3.00;;;;;;;;;;8357448;28;20061;-87
2022/06/24 06:25:44;;;;;;;12.05;3.35;;;;;;;;;;8351666;28;20060;-86
2022/06/24 06:29:51;;;;;;;10.40;3.88;;;;;;;;;;8355055;28;20152;-83
2022/06/24 06:33:55;;;;;;;5.82;3.25;;;;;;;;;;8355053;28;20590;-84
2022/06/24 06:38:01;;;;;;;13.23;9.05;;;;;;;;;;8344415;28;20918;-89
2022/06/24 06:42:06;;;;;;;14.27;7.20;;;;;;;;;;8350066;28;20068;-84
2022/06/24 06:46:11;;;;;;;3.42;2.30;;;;;;;;;;8352639;28;20499;-85
2022/06/24 06:50:15;;;;;;;5.28;2.45;;;;;;;;;;8343155;28;20041;-90
2022/06/24 06:54:21;;;;;;;4.60;2.60;;;;;;;;;;8345976;28;20052;-87
2022/06/24 06:58:26;;;;;;;10.55;3.20;;;;;;;;;;8361800;28;20060;-85
2022/06/24 07:02:33;;;;;;;8.95;5.80;;;;;;;;;;8338624;28;20048;-83
2022/06/24 07:06:39;;;;;;;5.50;3.13;;;;;;;;;;8363155;28;20050;-88
2022/06/24 07:10:45;;;;;;;5.28;2.40;;;;;;;;;;8366483;28;20056;-84
2022/06/24 07:14:49;;;;;;;8.00;3.30;;;;;;;;;;8364381;28;20103;-85
2022/06/24 07:18:53;;;;;;;20.98;13.27;;;;;;;;;;8368494;28;20461;-89
2022/06/24 07:22:58;;;;;;;11.00;5.97;;;;;;;;;;8367287;28;20408;-91
2022/06/24 07:27:05;;;;;;;6.43;3.83;;;;;;;;;;8367504;28;20045;-83
2022/06/24 07:31:18;;;;;;;9.45;3.35;;;;;;;;;;8355100;28;20049;-84
2022/06/24 07:35:21;;;;;;;4.07;2.03;;;;;;;;;;8369966;28;20119;-81
2022/06/24 07:39:24;;;;;;;4.55;2.00;;;;;;;;;;8364030;28;20477;-83
2022/06/24 07:43:29;;;;;;;3.95;1.90;;;;;;;;;;8355475;28;20064;-87
2022/06/24 07:47:35;;;;;;;2.83;2.10;;;;;;;;;;8358378;28;20052;-82
2022/06/24 07:51:37;;;;;;;7.60;4.72;;;;;;;;;;8360916;28;20407;-84
2022/06/24 08:00:11;;;;;;;4.88;1.95;;;;;;;;;;8325801;28;20052;-82
2022/06/24 08:04:14;;;;;;;3.95;1.70;;;;;;;;;;8358001;28;20045;-86
2022/06/24 08:08:16;;;;;;;9.82;4.90;;;;;;;;;;8353635;28;20406;-82
2022/06/24 08:12:20;;;;;;;5.88;3.17;;;;;;;;;;8356698;28;20041;-89
2022/06/24 08:16:25;;;;;;;9.98;6.10;;;;;;;;;;8356828;28;20041;-88
2022/06/24 08:20:28;;;;;;;23.25;20.77;;;;;;;;;;8358835;28;20072;-83
2022/06/24 08:24:31;;;;;;;4.20;2.67;;;;;;;;;;8357121;28;20061;-85
2022/06/24 08:28:34;;;;;;;5.93;4.13;;;;;;;;;;8357510;28;20055;-89
2022/06/24 08:32:38;;;;;;;14.00;9.13;;;;;;;;;;8356312;28;20076;-83
2022/06/24 08:36:41;;;;;;;9.63;4.93;;;;;;;;;;8353592;28;20049;-84
2022/06/24 08:40:47;;;;;;;5.63;2.90;;;;;;;;;;8359757;28;20064;-90
2022/06/24 08:44:50;;;;;;;20.85;6.80;;;;;;;;;;8353131;28;20072;-89
2022/06/24 08:48:58;;;;;;;5.60;2.10;;;;;;;;;;8357437;28;20395;-91
2022/06/24 08:53:06;;;;;;;15.80;5.43;;;;;;;;;;8356551;28;20053;-82
2022/06/24 08:57:08;;;;;;;3.88;1.85;;;;;;;;;;8359909;28;20041;-81
2022/06/24 09:01:15;;;;;;;2.95;1.80;;;;;;;;;;8357414;28;20057;-90
2022/06/24 09:05:21;;;;;;;6.50;2.92;;;;;;;;;;8356452;28;20049;-88
2022/06/24 09:09:25;;;;;;;13.13;3.45;;;;;;;;;;8356827;28;20704;-92
2022/06/24 09:13:28;;;;;;;3.15;2.08;;;;;;;;;;8357731;28;20049;-90
2022/06/24 09:17:32;;;;;;;3.42;2.30;;;;;;;;;;8354706;28;20041;-90
2022/06/24 09:21:39;;;;;;;6.68;2.53;;;;;;;;;;8351732;28;20068;-85
2022/06/24 09:25:44;;;;;;;3.22;2.13;;;;;;;;;;8347884;28;20390;-84
2022/06/24 09:29:48;;;;;;;3.58;1.98;;;;;;;;;;8349742;28;20037;-82
2022/06/24 09:33:54;;;;;;;5.03;2.35;;;;;;;;;;8348041;28;20050;-85
2022/06/24 09:37:59;;;;;;;2.35;1.70;;;;;;;;;;8345469;28;20483;-86
2022/06/24 09:42:02;;;;;;;14.60;3.42;;;;;;;;;;8346984;28;20503;-85
2022/06/24 09:46:05;;;;;;;2.60;1.50;;;;;;;;;;8348874;28;20045;-90
2022/06/24 09:50:08;;;;;;;7.15;3.65;;;;;;;;;;8355122;28;20052;-86
2022/06/24 09:54:15;;;;;;;6.70;2.40;;;;;;;;;;8364240;28;20102;-87
2022/06/24 09:58:19;;;;;;;9.20;4.10;;;;;;;;;;8360833;28;20482;-89
2022/06/24 10:02:23;;;;;;;21.42;7.15;;;;;;;;;;8352520;28;20041;-90
2022/06/24 10:06:26;;;;;;;11.98;5.05;;;;;;;;;;8352390;28;20128;-85
2022/06/24 10:10:33;;;;;;;3.30;1.65;;;;;;;;;;8351483;28;20385;-89
2022/06/24 10:14:37;;;;;;;2.78;1.90;;;;;;;;;;8348105;28;20053;-88
2022/06/24 10:18:41;;;;;;;12.30;5.00;;;;;;;;;;8335934;28;20052;-88
2022/06/24 10:22:46;;;;;;;12.23;3.72;;;;;;;;;;8352472;28;20057;-89
2022/06/24 10:26:52;;;;;;;3.42;1.75;;;;;;;;;;8338752;28;20187;-88
2022/06/24 10:30:59;;;;;;;4.95;2.25;;;;;;;;;;8341366;28;20072;-90
2022/06/24 10:35:07;;;;;;;3.65;1.77;;;;;;;;;;8352038;28;20152;-90
2022/06/24 10:39:12;;;;;;;4.95;2.50;;;;;;;;;;8348817;28;20044;-89
2022/06/24 10:43:34;;;;;;;5.82;2.38;;;;;;;;;;8355187;28;20087;-87
2022/06/24 10:47:42;;;;;;;4.40;2.03;;;;;;;;;;8351434;28;20040;-90
2022/06/24 10:51:45;;;;;;;3.72;1.98;;;;;;;;;;8357825;28;20049;-88
2022/06/24 10:55:48;;;;;;;10.70;3.10;;;;;;;;;;8354121;28;20045;-91
2022/06/24 10:59:53;;;;;;;3.40;2.13;;;;;;;;;;8338391;28;20037;-85
2022/06/24 11:04:10;;;;;;;3.25;1.80;;;;;;;;;;8341894;28;20045;-89
2022/06/24 11:08:19;;;;;;;3.25;1.60;;;;;;;;;;8342780;28;20080;-91
2022/06/24 11:12:34;;;;;;;5.13;2.13;;;;;;;;;;8355354;28;20408;-89
2022/06/24 11:16:55;;;;;;;5.32;1.88;;;;;;;;;;8353099;28;20459;-88
2022/06/24 11:21:19;;;;;;;7.35;2.67;;;;;;;;;;8354488;28;20057;-91
2022/06/24 11:25:37;;;;;;;2.90;1.70;;;;;;;;;;8352137;28;20044;-91
2022/06/24 11:30:03;;;;;;;6.65;2.20;;;;;;;;;;8336861;28;20076;-87
2022/06/24 11:34:19;;;;;;;5.35;2.40;;;;;;;;;;8356588;28;20045;-90
2022/06/24 11:38:42;;;;;;;6.30;2.30;;;;;;;;;;8350243;28;20037;-91
2022/06/24 11:42:52;;;;;;;4.45;1.77;;;;;;;;;;8353879;28;20507;-89
2022/06/24 11:47:05;;;;;;;6.35;2.05;;;;;;;;;;8335326;28;20073;-89
2022/06/24 11:51:28;;;;;;;7.55;2.55;;;;;;;;;;8350242;28;20127;-89
2022/06/24 11:55:44;;;;;;;3.22;1.85;;;;;;;;;;8350744;28;20049;-89
2022/06/24 11:59:50;;;;;;;6.65;3.22;;;;;;;;;;8333144;28;20040;-86
2022/06/24 12:03:55;;;;;;;4.07;2.20;;;;;;;;;;8204953;28;20103;-86
2022/06/24 12:08:00;;;;;;;3.40;2.28;;;;;;;;;;8253583;28;20690;-83
2022/06/24 12:12:11;;;;;;;3.47;2.20;;;;;;;;;;8313752;28;20052;-81
2022/06/24 12:16:13;;;;;;;6.05;2.30;;;;;;;;;;8331785;28;20055;-83
2022/06/24 12:20:22;;;;;;;4.78;2.00;;;;;;;;;;8350643;28;20138;-83
2022/06/24 12:24:28;;;;;;;5.80;2.83;;;;;;;;;;8349660;28;20049;-86
2022/06/24 12:28:31;;;;;;;4.75;2.05;;;;;;;;;;8347471;28;20075;-82
2022/06/24 12:32:50;;;;;;;3.95;2.00;;;;;;;;;;8346615;28;20048;-85
2022/06/24 12:36:57;;;;;;;6.68;2.95;;;;;;;;;;8354555;28;20072;-81
2022/06/24 12:41:09;;;;;;;7.07;2.80;;;;;;;;;;8354878;28;20126;-84
2022/06/24 12:45:25;;;;;;;5.55;2.20;;;;;;;;;;8352976;28;20071;-89
2022/06/24 12:53:58;;;;;;;7.30;2.35;;;;;;;;;;8355128;28;20051;-82
2022/06/24 12:58:03;;;;;;;3.15;2.05;;;;;;;;;;8354955;28;20080;-83
2022/06/24 13:02:15;;;;;;;2.70;1.90;;;;;;;;;;8353303;28;20056;-83
2022/06/24 13:06:19;;;;;;;4.63;2.15;;;;;;;;;;8356887;28;20088;-84
2022/06/24 13:10:23;;;;;;;5.13;2.00;;;;;;;;;;8356992;28;20094;-83
2022/06/24 13:14:27;;;;;;;31.00;19.20;;;;;;;;;;8354077;28;20051;-81
2022/06/24 13:18:31;;;;;;;4.50;2.63;;;;;;;;;;8353863;28;20642;-84
2022/06/24 13:22:33;;;;;;;2.55;1.90;;;;;;;;;;8350490;28;20065;-90
2022/06/24 13:26:36;;;;;;;3.55;2.22;;;;;;;;;;8352472;28;20068;-93
2022/06/24 13:30:41;;;;;;;5.00;1.90;;;;;;;;;;8351594;28;20043;-84
2022/06/24 13:48:15;;;;;;;3.13;2.10;;;;;;;;;;8395134;27;1814114;-87
2022/06/24 13:52:21;;;;;;;5.72;2.42;;;;;;;;;;8442665;28;20075;-91
2022/06/24 13:56:35;;;;;;;15.93;12.55;;;;;;;;;;8433998;28;20058;-83
2022/06/24 14:00:41;;;;;;;6.32;3.85;;;;;;;;;;8442711;28;20130;-82
2022/06/24 14:04:46;;;;;;;5.72;2.47;;;;;;;;;;8432405;28;20035;-83
2022/06/24 14:08:50;;;;;;;7.57;4.70;;;;;;;;;;8427749;28;20143;-81
2022/06/24 14:13:05;;;;;;;4.40;2.20;;;;;;;;;;8442017;28;20070;-88
2022/06/24 14:17:12;;;;;;;4.03;2.28;;;;;;;;;;8443506;28;20056;-88
2022/06/24 14:21:42;;;;;;;8.25;3.40;;;;;;;;;;8435692;28;20597;-87
2022/06/24 14:25:53;;;;;;;14.02;4.50;;;;;;;;;;8438985;28;20127;-88
2022/06/24 14:30:11;;;;;;;4.70;2.53;;;;;;;;;;8435426;28;20118;-90
2022/06/24 14:34:17;;;;;;;4.70;2.92;;;;;;;;;;8436148;28;20486;-91
2022/06/24 14:43:06;;;;;;;3.05;2.25;;;;;;;;;;8434424;28;20046;-83
2022/06/24 14:47:27;;;;;;;6.00;2.20;;;;;;;;;;8437745;28;20102;-85
2022/06/24 14:51:55;;;;;;;3.13;2.10;;;;;;;;;;8415200;28;20062;-84
2022/06/24 14:56:22;;;;;;;4.70;2.50;;;;;;;;;;8425075;28;20526;-83
2022/06/24 15:00:58;;;;;;;3.22;2.15;;;;;;;;;;8415588;28;20416;-84
2022/06/24 15:05:36;;;;;;;5.28;2.33;;;;;;;;;;8417943;28;20075;-85
2022/06/24 15:10:15;;;;;;;4.10;2.13;;;;;;;;;;8416470;28;20047;-84
2022/06/24 15:15:04;;;;;;;4.22;2.25;;;;;;;;;;8421549;28;20052;-84
2022/06/24 15:19:24;;;;;;;2.45;2.15;;;;;;;;;;8423219;28;20149;-84
2022/06/24 15:23:40;;;;;;;3.45;2.30;;;;;;;;;;8420083;28;20097;-84
2022/06/24 15:27:57;;;;;;;2.80;2.30;;;;;;;;;;8406928;28;20086;-84
2022/06/24 15:32:39;;;;;;;2.60;2.10;;;;;;;;;;8409795;28;20044;-85
2022/06/24 15:36:54;;;;;;;3.40;2.30;;;;;;;;;;8425187;28;20401;-85
2022/06/24 15:41:12;;;;;;;4.20;2.30;;;;;;;;;;8415935;28;20441;-84
2022/06/24 15:45:31;;;;;;;5.60;2.47;;;;;;;;;;8419652;28;20056;-84
2022/06/24 15:50:03;;;;;;;3.70;2.27;;;;;;;;;;8414310;28;20052;-84
2022/06/24 15:54:22;;;;;;;5.60;2.63;;;;;;;;;;8401967;28;20048;-83
2022/06/24 15:58:50;;;;;;;6.20;2.67;;;;;;;;;;8408928;28;20093;-85
2022/06/24 16:03:03;;;;;;;3.30;2.30;;;;;;;;;;8405689;28;20412;-83
2022/06/24 16:07:14;;;;;;;3.28;2.20;;;;;;;;;;8406848;28;20048;-84
2022/06/24 16:11:25;;;;;;;5.53;2.47;;;;;;;;;;8401114;28;20052;-84
2022/06/24 16:15:38;;;;;;;3.55;2.50;;;;;;;;;;8406489;28;20447;-84
2022/06/24 16:19:44;;;;;;;4.47;2.60;;;;;;;;;;8412099;28;20546;-84
2022/06/24 16:23:58;;;;;;;3.95;2.58;;;;;;;;;;8412033;28;20064;-83
2022/06/24 16:32:43;;;;;;;5.68;2.60;;;;;;;;;;8401784;28;20110;-84
2022/06/24 16:36:55;;;;;;;6.82;2.67;;;;;;;;;;8404811;28;20067;-84
2022/06/24 16:41:02;;;;;;;7.85;2.75;;;;;;;;;;8407986;28;20063;-84
2022/06/24 16:45:29;;;;;;;3.15;2.30;;;;;;;;;;8416165;28;20151;-83
2022/06/24 16:49:40;;;;;;;7.20;2.88;;;;;;;;;;8407965;28;20057;-84
2022/06/24 16:53:47;;;;;;;3.95;2.58;;;;;;;;;;8416727;28;20479;-84
2022/06/24 16:57:57;;;;;;;5.00;2.90;;;;;;;;;;8416311;28;20047;-84
2022/06/24 17:02:03;;;;;;;5.23;2.50;;;;;;;;;;8410328;28;20040;-84
2022/06/24 17:06:11;;;;;;;5.70;2.63;;;;;;;;;;8409587;28;20048;-85
2022/06/24 17:10:17;;;;;;;10.15;2.75;;;;;;;;;;8410956;28;20450;-82
2022/06/24 17:14:29;;;;;;;3.92;2.58;;;;;;;;;;8398600;28;20033;-84
2022/06/24 17:18:39;;;;;;;6.13;2.72;;;;;;;;;;8408622;28;20049;-83
2022/06/24 17:22:45;;;;;;;4.90;2.50;;;;;;;;;;8410709;28;20047;-83
2022/06/24 17:26:51;;;;;;;6.43;2.67;;;;;;;;;;8404465;28;20044;-85
2022/06/24 17:31:11;;;;;;;4.30;2.67;;;;;;;;;;8404035;28;20045;-84
2022/06/24 17:35:25;;;;;;;4.20;3.15;;;;;;;;;;8406615;28;20120;-84
2022/06/24 17:39:54;;;;;;;3.60;2.47;;;;;;;;;;8407756;28;20070;-84
2022/06/24 17:44:09;;;;;;;9.02;3.15;;;;;;;;;;8417692;28;20040;-83
2022/06/24 17:48:27;;;;;;;4.50;2.70;;;;;;;;;;8413429;28;20171;-83
2022/06/24 17:52:41;;;;;;;5.38;2.60;;;;;;;;;;8408377;28;20047;-83
2022/06/24 17:56:49;;;;;;;5.18;2.60;;;;;;;;;;8412166;28;20060;-83
2022/06/24 18:00:54;;;;;;;4.70;2.85;;;;;;;;;;8412570;28;20083;-83
2022/06/24 18:05:02;;;;;;;4.90;2.55;;;;;;;;;;8403414;28;20123;-84
2022/06/24 18:09:09;;;;;;;3.97;2.97;;;;;;;;;;8409573;28;20044;-83
2022/06/24 18:13:40;;;;;;;8.65;2.75;;;;;;;;;;8412572;28;20502;-84
2022/06/24 18:17:53;;;;;;;10.85;3.88;;;;;;;;;;8405715;28;20408;-83
2022/06/24 18:22:20;;;;;;;6.63;4.70;;;;;;;;;;8406082;28;20403;-83
2022/06/24 18:26:26;;;;;;;8.85;4.90;;;;;;;;;;8406323;28;20135;-83
2022/06/24 18:30:37;;;;;;;6.63;3.60;;;;;;;;;;8413326;28;20112;-83
2022/06/24 18:34:49;;;;;;;4.00;3.10;;;;;;;;;;8416845;28;20047;-84
2022/06/24 18:38:58;;;;;;;6.10;3.58;;;;;;;;;;8415552;28;20408;-85
2022/06/24 18:48:27;;;;;;;4.25;2.90;;;;;;;;;;8398780;28;20177;-83
2022/06/24 18:52:38;;;;;;;5.07;2.80;;;;;;;;;;8416563;28;20049;-88
2022/06/24 18:57:16;;;;;;;8.35;3.65;;;;;;;;;;8416043;28;20075;-88
2022/06/24 19:07:03;;;;;;;6.40;3.72;;;;;;;;;;8404291;28;20048;-83
2022/06/24 19:16:07;;;;;;;5.07;3.40;;;;;;;;;;8417351;28;20036;-84
2022/06/24 19:20:22;;;;;;;8.23;4.97;;;;;;;;;;8407525;28;20055;-87
2022/06/24 19:24:27;;;;;;;7.68;4.70;;;;;;;;;;8414938;28;20040;-88
2022/06/24 19:28:32;;;;;;;6.47;4.65;;;;;;;;;;8417135;28;20044;-82
2022/06/24 19:32:41;;;;;;;7.63;4.20;;;;;;;;;;8417352;28;20040;-84
2022/06/24 19:36:45;;;;;;;8.82;4.80;;;;;;;;;;8417704;28;20040;-83
2022/06/24 19:40:48;;;;;;;9.45;4.70;;;;;;;;;;8422922;28;20044;-82
2022/06/24 19:44:53;;;;;;;8.07;4.35;;;;;;;;;;8416857;28;20044;-84
2022/06/24 19:48:58;;;;;;;7.22;4.22;;;;;;;;;;8420857;28;20101;-84
2022/06/24 19:53:01;;;;;;;5.93;4.25;;;;;;;;;;8408141;28;20430;-87
2022/06/24 19:57:05;;;;;;;6.85;4.10;;;;;;;;;;8422203;28;20518;-88
2022/06/24 20:01:08;;;;;;;5.60;4.10;;;;;;;;;;8417715;28;20067;-82
2022/06/24 20:09:33;;;;;;;4.68;3.50;;;;;;;;;;8417114;28;20039;-84
2022/06/24 20:13:37;;;;;;;6.63;3.92;;;;;;;;;;8411244;28;20060;-83
2022/06/24 20:17:43;;;;;;;8.05;3.80;;;;;;;;;;8419014;28;20131;-84
2022/06/24 20:21:48;;;;;;;5.45;4.00;;;;;;;;;;8407838;28;20048;-88
2022/06/24 20:26:05;;;;;;;7.28;4.10;;;;;;;;;;8421684;28;20032;-84
2022/06/24 20:30:11;;;;;;;6.63;3.67;;;;;;;;;;8406574;28;20044;-88
2022/06/24 20:34:16;;;;;;;5.70;3.92;;;;;;;;;;8414419;28;20036;-83
2022/06/24 20:38:22;;;;;;;4.53;3.58;;;;;;;;;;8383908;28;20055;-85
2022/06/24 20:42:25;;;;;;;4.75;3.53;;;;;;;;;;8414600;28;20041;-85
2022/06/24 20:46:29;;;;;;;7.18;3.72;;;;;;;;;;8418306;28;20093;-81
2022/06/24 20:50:31;;;;;;;7.28;3.80;;;;;;;;;;8407396;28;20144;-84
2022/06/24 20:54:36;;;;;;;6.55;4.28;;;;;;;;;;8411949;28;20052;-81
2022/06/24 20:58:39;;;;;;;5.78;3.67;;;;;;;;;;8423853;28;20117;-87
2022/06/24 21:02:43;;;;;;;7.78;3.38;;;;;;;;;;8412517;28;20511;-89
2022/06/24 21:06:47;;;;;;;20.25;4.10;;;;;;;;;;8408235;28;20380;-81
2022/06/24 21:10:52;;;;;;;4.88;3.90;;;;;;;;;;8409657;28;21976;-82
2022/06/24 21:14:55;;;;;;;5.10;3.70;;;;;;;;;;8404991;28;20079;-89
2022/06/24 21:18:58;;;;;;;8.82;4.00;;;;;;;;;;8414682;28;20036;-89
2022/06/24 21:23:01;;;;;;;6.43;3.63;;;;;;;;;;8408300;28;20151;-88
2022/06/24 21:27:06;;;;;;;6.40;3.50;;;;;;;;;;8411823;28;20067;-83
2022/06/24 21:31:09;;;;;;;9.57;3.55;;;;;;;;;;8414242;28;20044;-85
2022/06/24 21:35:12;;;;;;;6.03;4.20;;;;;;;;;;8405270;28;20052;-82
2022/06/24 21:39:15;;;;;;;4.43;3.15;;;;;;;;;;8418868;28;20060;-83
2022/06/24 21:43:19;;;;;;;5.13;3.45;;;;;;;;;;8413361;28;20045;-86
2022/06/24 21:47:24;;;;;;;7.18;3.45;;;;;;;;;;8404170;28;20102;-83
2022/06/24 21:51:30;;;;;;;5.90;3.70;;;;;;;;;;8420007;28;20105;-83
2022/06/24 21:55:32;;;;;;;5.95;3.92;;;;;;;;;;8408188;28;20052;-83
2022/06/24 21:59:37;;;;;;;7.75;4.10;;;;;;;;;;8410316;28;20052;-88
2022/06/24 22:03:39;;;;;;;4.97;3.67;;;;;;;;;;8414842;28;20070;-82
2022/06/24 22:07:42;;;;;;;5.40;3.45;;;;;;;;;;8404839;28;20048;-88
2022/06/24 22:11:45;;;;;;;6.03;3.50;;;;;;;;;;8410892;28;20044;-85
2022/06/24 22:15:50;;;;;;;5.18;3.40;;;;;;;;;;8424443;28;20407;-82
2022/06/24 22:19:53;;;;;;;7.10;3.50;;;;;;;;;;8419722;28;20052;-87
2022/06/24 22:23:55;;;;;;;5.72;3.40;;;;;;;;;;8417741;28;20051;-84
2022/06/24 22:27:58;;;;;;;5.25;3.70;;;;;;;;;;8406235;28;20530;-83
2022/06/24 22:32:02;;;;;;;5.80;3.80;;;;;;;;;;8412434;28;20043;-86
2022/06/24 22:36:05;;;;;;;6.03;3.22;;;;;;;;;;8416074;28;20173;-86
2022/06/24 22:40:10;;;;;;;6.13;3.60;;;;;;;;;;8418747;28;20048;-83
2022/06/24 22:44:12;;;;;;;6.03;3.90;;;;;;;;;;8423042;28;20036;-88
2022/06/24 22:48:16;;;;;;;6.75;4.45;;;;;;;;;;8419110;28;20056;-86
2022/06/24 22:52:19;;;;;;;5.22;3.83;;;;;;;;;;8415547;28;20056;-84
2022/06/24 22:56:22;;;;;;;6.63;3.90;;;;;;;;;;8409369;28;20060;-83
2022/06/24 23:00:25;;;;;;;7.32;4.00;;;;;;;;;;8415385;28;20044;-86
2022/06/24 23:04:29;;;;;;;5.78;4.05;;;;;;;;;;8412961;28;20047;-86
2022/06/24 23:08:32;;;;;;;9.48;4.13;;;;;;;;;;8415339;28;20041;-83
2022/06/24 23:12:34;;;;;;;5.38;3.80;;;;;;;;;;8415238;28;20445;-87
2022/06/24 23:16:37;;;;;;;8.38;3.97;;;;;;;;;;8421692;28;20407;-83
2022/06/24 23:20:41;;;;;;;6.13;3.72;;;;;;;;;;8421138;28;20121;-83
2022/06/24 23:24:43;;;;;;;6.90;4.20;;;;;;;;;;8415452;28;20044;-89
2022/06/24 23:28:46;;;;;;;8.93;3.75;;;;;;;;;;8411028;28;20043;-84
2022/06/24 23:32:48;;;;;;;7.38;3.97;;;;;;;;;;8411402;28;20401;-84
2022/06/24 23:36:52;;;;;;;6.65;3.88;;;;;;;;;;8415301;28;20050;-85
2022/06/24 23:40:55;;;;;;;7.13;4.75;;;;;;;;;;8411168;28;20443;-87
2022/06/24 23:44:57;;;;;;;6.07;3.70;;;;;;;;;;8417505;28;20372;-88
2022/06/24 23:53:21;;;;;;;8.52;3.70;;;;;;;;;;8420767;28;20048;-84
2022/06/24 23:57:24;;;;;;;7.15;3.92;;;;;;;;;;8424551;28;20055;-84
